Time;durP1;ratioP1;P1;durP2;ratioP2;P2;SDS_P1;SDS_P2;PMS_P1;PMS_P2;Temp;Humidity;BMP_temperature;BMP_pressure;BME280_temperature;BME280_humidity;BME280_pressure;Samples;Min_cycle;Max_cycle;Signal;HPM_P1;HPM_P2
2022/02/04 00:06:18;;;;;;;12.23;10.77;;;;;;;6.74;100.00;96559.44;5031583;28;20398;-69
2022/02/04 00:09:06;;;;;;;11.45;10.25;;;;;;;6.38;100.00;96567.78;5039491;28;20406;-69
2022/02/04 00:25:20;;;;;;;11.15;9.43;;;;;;;6.85;100.00;96577.03;5051062;28;20389;-68
2022/02/04 00:27:47;;;;;;;10.57;9.27;;;;;;;6.68;100.00;96587.13;5050562;28;20393;-68
2022/02/04 00:30:22;;;;;;;9.52;8.63;;;;;;;6.62;100.00;96588.75;5043411;28;20401;-68
2022/02/04 00:32:50;;;;;;;9.20;8.23;;;;;;;6.57;100.00;96578.16;5050586;28;20394;-70
2022/02/04 00:37:58;;;;;;;9.10;8.20;;;;;;;6.63;100.00;96581.75;5051096;28;20715;-69
2022/02/04 00:40:27;;;;;;;9.55;8.57;;;;;;;6.75;100.00;96574.84;5065153;28;20809;-70
2022/02/04 00:42:56;;;;;;;9.00;8.10;;;;;;;6.74;100.00;96594.13;5074929;28;20480;-70
2022/02/04 00:45:28;;;;;;;9.60;8.55;;;;;;;6.68;100.00;96592.34;5056604;28;20489;-70
2022/02/04 00:48:03;;;;;;;9.25;8.00;;;;;;;6.70;100.00;96590.31;5045093;28;20490;-69
2022/02/04 00:50:38;;;;;;;9.10;8.20;;;;;;;6.53;100.00;96591.75;5073996;28;20860;-70
2022/02/04 00:53:13;;;;;;;8.30;7.50;;;;;;;6.65;100.00;96595.34;5056490;28;20804;-70
2022/02/04 00:55:48;;;;;;;8.68;7.78;;;;;;;6.32;100.00;96594.63;5064981;28;20453;-69
2022/02/04 01:13:16;;;;;;;7.32;6.63;;;;;;;6.18;100.00;96607.69;5056034;28;20413;-69
2022/02/04 01:28:21;;;;;;;6.35;5.32;;;;;;;6.56;97.28;96620.00;5055173;28;20801;-69
2022/02/04 01:30:47;;;;;;;6.20;5.57;;;;;;;6.44;96.61;96614.63;5055475;28;20470;-69
2022/02/04 01:33:13;;;;;;;5.80;5.30;;;;;;;6.55;95.93;96614.00;5054395;28;20390;-69
2022/02/04 01:35:38;;;;;;;6.13;5.38;;;;;;;6.52;95.72;96611.03;5053966;28;20472;-69
2022/02/04 01:38:04;;;;;;;5.47;4.90;;;;;;;6.35;96.06;96618.47;5064887;28;20484;-69
2022/02/04 01:40:29;;;;;;;5.67;5.07;;;;;;;6.58;94.69;96612.78;5073437;28;20962;-69
2022/02/04 01:42:55;;;;;;;5.53;4.93;;;;;;;6.35;95.81;96602.84;5073511;28;20416;-70
2022/02/04 01:45:20;;;;;;;5.72;5.10;;;;;;;6.38;95.81;96610.25;5055558;28;20490;-69
2022/02/04 01:47:55;;;;;;;6.30;4.83;;;;;;;6.64;94.27;96612.75;5068246;28;20396;-69
2022/02/04 01:50:21;;;;;;;5.72;5.13;;;;;;;6.33;95.22;96607.44;5057902;28;20400;-71
2022/02/04 01:52:47;;;;;;;5.47;4.97;;;;;;;6.53;94.55;96605.59;5073117;28;20399;-69
2022/02/04 01:55:14;;;;;;;5.17;4.67;;;;;;;6.38;94.89;96612.03;5055482;28;20400;-69
2022/02/04 01:57:40;;;;;;;5.43;4.93;;;;;;;6.61;94.34;96604.56;5072913;28;20873;-70
2022/02/04 02:00:06;;;;;;;4.80;4.40;;;;;;;6.73;93.64;96605.53;5052131;28;20451;-69
2022/02/04 02:02:31;;;;;;;4.90;4.40;;;;;;;6.73;93.39;96613.34;5060102;28;20874;-69
2022/02/04 02:04:57;;;;;;;4.90;4.40;;;;;;;6.72;93.52;96608.34;5070424;28;20388;-69
2022/02/04 02:07:25;;;;;;;5.10;4.70;;;;;;;6.65;93.70;96605.75;5073132;28;20468;-69
2022/02/04 02:10:00;;;;;;;5.38;4.95;;;;;;;6.62;94.51;96616.59;5072487;28;20815;-69
2022/02/04 02:12:31;;;;;;;4.87;4.47;;;;;;;6.50;95.07;96605.22;5062004;28;20464;-69
2022/02/04 02:15:10;;;;;;;5.20;4.80;;;;;;;6.68;94.10;96603.56;5054329;28;20382;-69
2022/02/04 02:34:58;;;;;;;5.88;5.35;;;;;;;6.51;95.65;96599.81;5063963;28;20881;-69
2022/02/04 02:42:29;;;;;;;6.22;5.63;;;;;;;6.66;94.52;96608.16;5052867;28;20413;-69
2022/02/04 02:50:23;;;;;;;6.20;5.60;;;;;;;6.74;93.95;96614.16;5070353;28;20484;-70
2022/02/04 02:55:31;;;;;;;5.57;5.07;;;;;;;6.70;94.08;96605.94;5071857;28;20439;-69
2022/02/04 02:58:07;;;;;;;5.57;5.07;;;;;;;6.63;93.76;96597.38;5061145;28;20400;-69
2022/02/04 03:00:46;;;;;;;5.53;5.03;;;;;;;6.75;92.95;96603.50;5053565;28;20393;-70
2022/02/04 03:03:13;;;;;;;5.53;5.03;;;;;;;6.71;92.60;96598.91;5058253;28;20396;-69
2022/02/04 03:05:40;;;;;;;5.82;5.30;;;;;;;6.47;93.84;96608.19;5054770;28;20391;-69
2022/02/04 03:08:06;;;;;;;5.30;4.85;;;;;;;6.57;93.41;96606.78;5071969;28;20441;-69
2022/02/04 03:10:32;;;;;;;5.63;5.03;;;;;;;6.60;93.96;96608.97;5052510;28;20483;-71
2022/02/04 03:12:57;;;;;;;5.60;5.10;;;;;;;6.54;93.44;96607.19;5072437;28;20892;-70
2022/02/04 03:15:23;;;;;;;6.13;5.10;;;;;;;6.66;93.76;96602.16;5072301;28;20497;-70
2022/02/04 03:17:57;;;;;;;5.77;5.23;;;;;;;6.80;93.58;96608.13;5071750;28;20474;-69
2022/02/04 03:20:23;;;;;;;5.13;4.65;;;;;;;6.53;94.31;96607.38;5056475;28;20401;-69
2022/02/04 03:22:49;;;;;;;5.53;5.03;;;;;;;6.70;93.50;96618.94;5052266;28;20416;-69
2022/02/04 03:25:17;;;;;;;5.75;5.15;;;;;;;6.72;92.89;96619.56;5071580;28;20779;-69
2022/02/04 03:27:50;;;;;;;5.53;4.80;;;;;;;6.63;93.37;96626.78;5071356;28;20392;-70
2022/02/04 03:30:20;;;;;;;5.32;4.82;;;;;;;6.42;94.33;96614.03;5057506;28;20405;-69
2022/02/04 03:32:53;;;;;;;5.50;4.70;;;;;;;6.60;93.46;96614.19;5064501;28;20395;-69
2022/02/04 03:35:23;;;;;;;5.63;5.13;;;;;;;6.52;94.28;96617.00;5048024;28;20894;-69
2022/02/04 03:37:50;;;;;;;4.97;4.57;;;;;;;6.51;93.49;96620.63;5052072;28;20396;-69
2022/02/04 03:40:17;;;;;;;5.15;4.65;;;;;;;6.52;93.84;96614.41;5051291;28;20518;-69
2022/02/04 03:42:46;;;;;;;5.63;4.95;;;;;;;6.57;93.47;96617.22;5063436;28;20604;-69
2022/02/04 03:45:13;;;;;;;5.40;4.90;;;;;;;6.54;93.42;96616.81;5067638;28;20449;-69
2022/02/04 03:47:39;;;;;;;5.00;4.60;;;;;;;6.40;94.73;96615.25;5051502;28;20438;-69
2022/02/04 03:50:05;;;;;;;5.77;5.17;;;;;;;6.65;93.31;96616.97;5051984;28;20397;-69
2022/02/04 03:52:30;;;;;;;5.80;5.30;;;;;;;6.65;93.29;96616.16;5033999;28;20410;-69
2022/02/04 03:54:55;;;;;;;5.87;5.27;;;;;;;6.44;94.95;96614.63;5034670;28;20437;-69
2022/02/04 03:57:21;;;;;;;5.65;5.15;;;;;;;6.24;95.45;96612.06;5055242;28;20389;-69
2022/02/04 03:59:46;;;;;;;5.67;5.17;;;;;;;6.46;94.63;96620.44;5033554;28;20448;-69
2022/02/04 04:02:13;;;;;;;5.20;4.78;;;;;;;6.57;93.47;96626.81;5056944;28;20414;-69
2022/02/04 04:04:39;;;;;;;5.75;5.22;;;;;;;6.31;95.82;96634.69;5053189;28;20457;-69
2022/02/04 04:07:04;;;;;;;6.20;5.27;;;;;;;6.53;94.76;96630.81;5052990;28;20846;-69
2022/02/04 04:09:30;;;;;;;5.33;4.83;;;;;;;6.32;97.45;96639.69;5051448;28;20421;-69
2022/02/04 04:11:56;;;;;;;5.43;4.88;;;;;;;6.35;98.06;96628.88;5051489;28;20750;-69
2022/02/04 04:14:21;;;;;;;5.50;5.00;;;;;;;6.13;99.15;96637.94;5053941;28;20393;-69
2022/02/04 04:16:47;;;;;;;5.57;5.07;;;;;;;6.02;100.00;96633.34;5070900;28;20554;-69
2022/02/04 04:19:14;;;;;;;5.72;5.22;;;;;;;6.06;100.00;96639.72;5061064;28;20488;-68
2022/02/04 04:21:39;;;;;;;5.53;5.03;;;;;;;6.11;100.00;96638.13;5037583;28;20461;-70
2022/02/04 04:24:06;;;;;;;5.80;5.20;;;;;;;6.15;100.00;96636.72;5074333;28;20391;-70
2022/02/04 04:26:32;;;;;;;6.03;5.30;;;;;;;5.93;100.00;96634.53;5074590;28;20426;-69
2022/02/04 04:28:57;;;;;;;5.70;5.20;;;;;;;5.95;100.00;96638.53;5073783;28;20394;-69
2022/02/04 04:31:23;;;;;;;5.63;5.13;;;;;;;5.98;100.00;96639.91;5072784;28;20474;-69
2022/02/04 04:33:48;;;;;;;6.15;5.55;;;;;;;6.08;100.00;96642.91;5074899;28;20388;-69
2022/02/04 04:36:13;;;;;;;6.03;5.53;;;;;;;6.03;100.00;96645.31;5065911;28;20742;-69
2022/02/04 04:38:46;;;;;;;6.10;5.50;;;;;;;6.03;100.00;96640.91;5055175;28;20396;-69
2022/02/04 04:41:31;;;;;;;5.95;5.43;;;;;;;5.87;100.00;96638.72;5038862;28;20822;-69
2022/02/04 05:28:38;;;;;;;5.78;5.28;;;;;;;5.76;100.00;96653.09;5064178;28;20489;-69
2022/02/04 05:31:03;;;;;;;6.00;5.40;;;;;;;5.77;100.00;96654.72;5073648;28;20400;-69
2022/02/04 05:33:29;;;;;;;5.70;5.20;;;;;;;5.93;99.81;96653.53;5055592;28;20388;-69
2022/02/04 05:35:54;;;;;;;5.67;5.17;;;;;;;5.94;97.79;96651.72;5073629;28;20387;-71
2022/02/04 05:38:21;;;;;;;5.50;4.90;;;;;;;5.87;98.25;96649.13;5062435;28;20397;-68
2022/02/04 05:40:49;;;;;;;7.05;5.65;;;;;;;5.93;98.16;96652.72;5053841;28;20756;-68
2022/02/04 05:43:22;;;;;;;5.70;5.20;;;;;;;5.96;97.44;96657.53;5053973;28;20917;-68
2022/02/04 05:45:57;;;;;;;6.30;5.70;;;;;;;5.91;98.01;96657.34;5058907;28;20419;-68
2022/02/04 05:48:24;;;;;;;5.88;5.38;;;;;;;5.90;97.70;96658.34;5062050;28;20421;-69
2022/02/04 05:51:06;;;;;;;6.38;5.75;;;;;;;6.02;97.17;96664.56;5053793;28;20398;-68
2022/02/04 05:54:20;;;;;;;6.10;5.50;;;;;;;5.86;98.51;96663.91;5037926;28;20401;-69
2022/02/04 06:02:01;;;;;;;6.05;5.55;;;;;;;5.53;99.64;96659.66;5069237;28;20409;-69
2022/02/04 06:15:12;;;;;;;6.03;5.43;;;;;;;5.41;100.00;96675.84;5057044;28;20433;-69
2022/02/04 06:23:28;;;;;;;6.60;5.80;;;;;;;5.48;100.00;96675.84;4976025;28;20403;-69
2022/02/04 06:25:54;;;;;;;6.53;5.90;;;;;;;5.49;100.00;96669.66;5055402;28;21334;-69
2022/02/04 06:28:19;;;;;;;5.90;5.40;;;;;;;5.54;100.00;96669.88;5072991;28;20392;-69
2022/02/04 06:30:46;;;;;;;6.20;5.60;;;;;;;5.54;100.00;96661.28;5072732;28;20384;-69
2022/02/04 06:33:11;;;;;;;6.35;5.75;;;;;;;5.45;100.00;96673.66;5052621;28;20403;-68
2022/02/04 06:35:40;;;;;;;6.07;5.57;;;;;;;5.49;100.00;96667.06;5053067;28;20897;-69
2022/02/04 06:38:05;;;;;;;6.30;5.70;;;;;;;5.31;100.00;96675.41;5052703;28;20414;-69
2022/02/04 06:40:30;;;;;;;5.87;5.37;;;;;;;5.39;100.00;96677.84;5053406;28;20409;-69
2022/02/04 06:42:56;;;;;;;6.43;5.70;;;;;;;5.59;100.00;96680.47;5052641;28;20856;-69
2022/02/04 06:45:22;;;;;;;6.03;5.47;;;;;;;5.39;100.00;96682.25;5070922;28;20499;-69
2022/02/04 06:47:48;;;;;;;6.18;5.57;;;;;;;5.69;100.00;96685.28;5072317;28;20391;-69
2022/02/04 06:50:14;;;;;;;6.73;5.57;;;;;;;5.50;100.00;96689.47;5044964;28;20814;-69
2022/02/04 06:52:40;;;;;;;5.55;5.05;;;;;;;5.48;100.00;96690.66;5052946;28;20801;-70
2022/02/04 06:55:06;;;;;;;6.03;5.47;;;;;;;5.45;100.00;96684.06;5052570;28;20382;-69
2022/02/04 06:57:31;;;;;;;5.53;5.10;;;;;;;5.25;100.00;96686.59;5071829;28;20437;-69
2022/02/04 06:59:58;;;;;;;6.00;5.50;;;;;;;5.42;100.00;96681.84;5050809;28;20467;-68
2022/02/04 07:02:26;;;;;;;5.43;4.93;;;;;;;5.53;100.00;96689.06;5071969;28;20480;-68
2022/02/04 07:04:52;;;;;;;5.78;5.28;;;;;;;5.43;100.00;96686.03;5071338;28;20392;-68
2022/02/04 07:07:18;;;;;;;6.20;5.13;;;;;;;5.34;100.00;96679.44;5071968;28;20383;-69
2022/02/04 07:09:54;;;;;;;5.78;5.28;;;;;;;5.32;100.00;96679.63;5069959;28;20388;-69
2022/02/04 07:12:27;;;;;;;7.07;5.93;;;;;;;5.76;100.00;96686.91;5053920;28;20396;-69
2022/02/04 07:17:35;;;;;;;6.40;5.80;;;;;;;5.34;100.00;96685.44;5052223;28;20469;-70
2022/02/04 07:20:01;;;;;;;6.20;5.60;;;;;;;5.39;100.00;96690.84;5062549;28;20462;-71
2022/02/04 07:22:31;;;;;;;5.90;5.40;;;;;;;5.31;100.00;96687.59;5071512;28;20817;-72
2022/02/04 07:24:59;;;;;;;6.35;5.60;;;;;;;5.62;100.00;96684.50;5071974;28;20392;-71
2022/02/04 07:27:29;;;;;;;6.10;5.50;;;;;;;5.68;100.00;96679.31;5069373;28;20394;-71
2022/02/04 07:29:55;;;;;;;6.18;5.68;;;;;;;5.80;100.00;96682.09;5071224;28;20857;-71
2022/02/04 07:32:29;;;;;;;5.53;5.00;;;;;;;5.72;100.00;96687.50;5071020;28;20395;-71
2022/02/04 07:42:55;;;;;;;5.40;4.90;;;;;;;5.86;100.00;96687.31;5070766;28;20465;-71
2022/02/04 07:45:21;;;;;;;6.10;5.50;;;;;;;5.78;100.00;96687.50;5058637;28;20475;-70
2022/02/04 07:47:48;;;;;;;6.47;5.63;;;;;;;5.51;100.00;96688.47;5070843;28;20386;-76
2022/02/04 07:50:14;;;;;;;6.78;6.00;;;;;;;5.77;100.00;96690.31;5053001;28;20437;-74
2022/02/04 07:52:39;;;;;;;7.47;5.82;;;;;;;5.95;100.00;96697.56;5065954;28;20395;-69
2022/02/04 07:55:05;;;;;;;7.60;5.70;;;;;;;5.96;100.00;96704.38;5069116;28;20395;-70
2022/02/04 07:57:33;;;;;;;6.50;5.80;;;;;;;5.94;100.00;96707.16;5057586;28;20402;-69
2022/02/04 08:00:03;;;;;;;6.20;5.60;;;;;;;5.93;100.00;96702.94;5049744;28;21025;-69
2022/02/04 08:02:28;;;;;;;6.13;5.60;;;;;;;5.99;100.00;96703.97;5070659;28;20935;-69
2022/02/04 08:04:57;;;;;;;6.25;5.65;;;;;;;6.17;100.00;96701.56;5071581;28;20480;-69
2022/02/04 08:07:27;;;;;;;6.32;5.72;;;;;;;6.14;99.22;96701.94;5056276;28;20385;-68
2022/02/04 08:13:13;;;;;;;6.32;5.72;;;;;;;5.98;100.00;96697.94;5032813;28;20404;-69
2022/02/04 08:16:06;;;;;;;6.60;6.00;;;;;;;6.28;99.52;96703.56;5061754;28;20405;-69
2022/02/04 08:19:16;;;;;;;6.80;6.20;;;;;;;6.39;99.23;96704.75;5062594;28;20498;-69
2022/02/04 08:27:20;;;;;;;6.97;6.25;;;;;;;6.03;100.00;96687.75;5064016;28;20741;-72
2022/02/04 08:46:37;;;;;;;8.13;6.05;;;;;;;6.71;97.70;96685.66;5069690;28;20733;-69
2022/02/04 08:48:46;;;;;;;6.85;6.18;;;;;;;6.91;96.81;96675.19;5051827;28;20762;-69
2022/02/04 08:55:57;;;;;;;7.45;6.43;;;;;;;7.03;94.15;96681.34;5062885;28;20457;-69
2022/02/04 08:58:32;;;;;;;9.18;6.70;;;;;;;6.94;92.69;96683.38;5060012;28;20392;-69
2022/02/04 09:06:08;;;;;;;7.07;6.37;;;;;;;7.05;94.07;96687.16;5067606;28;20405;-69
2022/02/04 09:08:37;;;;;;;6.85;6.18;;;;;;;6.89;93.25;96685.81;5069572;28;20384;-69
2022/02/04 09:11:07;;;;;;;7.72;6.25;;;;;;;6.69;95.30;96685.06;5068704;28;20908;-69
2022/02/04 09:19:10;;;;;;;6.70;5.78;;;;;;;7.19;91.79;96686.09;5057649;28;20447;-73
2022/02/04 09:21:51;;;;;;;5.72;5.20;;;;;;;7.38;90.03;96679.19;5058906;28;20560;-70
2022/02/04 09:24:17;;;;;;;5.95;5.15;;;;;;;7.28;89.44;96677.03;5062225;28;20462;-69
2022/02/04 09:26:43;;;;;;;6.03;5.30;;;;;;;7.27;89.98;96677.22;5062265;28;20439;-69
2022/02/04 09:29:09;;;;;;;6.22;5.55;;;;;;;7.36;90.35;96668.97;5063743;28;20386;-69
2022/02/04 09:31:36;;;;;;;5.78;4.95;;;;;;;7.28;89.16;96674.44;5058813;28;20857;-69
2022/02/04 09:34:06;;;;;;;5.68;5.07;;;;;;;7.51;89.27;96674.72;5068093;28;20492;-70
2022/02/04 09:36:32;;;;;;;5.90;5.30;;;;;;;7.55;90.16;96669.06;5060018;28;20857;-70
2022/02/04 09:38:59;;;;;;;4.82;4.43;;;;;;;7.70;88.75;96677.38;5038807;28;20755;-69
2022/02/04 09:41:25;;;;;;;4.97;4.57;;;;;;;7.94;87.37;96663.56;5057278;28;20495;-69
2022/02/04 09:43:51;;;;;;;4.77;4.30;;;;;;;8.05;87.29;96662.06;5057152;28;20956;-69
2022/02/04 09:46:17;;;;;;;4.40;4.00;;;;;;;8.12;86.31;96661.03;5060259;28;20404;-69
2022/02/04 09:48:45;;;;;;;4.40;4.00;;;;;;;8.40;85.25;96665.03;5062753;28;20390;-69
2022/02/04 09:51:14;;;;;;;3.42;3.13;;;;;;;8.56;84.68;96656.63;5035950;28;20433;-69
2022/02/04 10:18:12;;;;;;;3.60;3.03;;;;;;;8.70;79.30;96645.81;5073132;28;20528;-69
2022/02/04 10:20:39;;;;;;;2.92;2.72;;;;;;;8.69;79.05;96649.44;5055998;28;20414;-69
2022/02/04 10:23:05;;;;;;;3.28;2.97;;;;;;;8.56;79.49;96640.94;5071463;28;20384;-69
2022/02/04 10:25:36;;;;;;;3.00;2.80;;;;;;;8.37;80.93;96647.97;5055115;28;20736;-69
2022/02/04 10:28:22;;;;;;;3.15;2.83;;;;;;;8.58;80.76;96644.94;5065780;28;20468;-69
2022/02/04 10:31:05;;;;;;;3.15;2.85;;;;;;;8.73;79.20;96645.38;5053786;28;20426;-69
2022/02/04 10:33:32;;;;;;;2.90;2.63;;;;;;;8.54;79.34;96650.81;5059474;28;20395;-69
2022/02/04 10:35:58;;;;;;;2.90;2.70;;;;;;;8.51;80.46;96648.63;5055085;28;20892;-69
2022/02/04 10:38:44;;;;;;;2.40;2.20;;;;;;;8.21;79.68;96649.28;5057012;28;20417;-70
2022/02/04 10:41:23;;;;;;;2.60;2.40;;;;;;;8.48;79.14;96633.38;5057975;28;20426;-69
2022/02/04 10:44:22;;;;;;;2.40;2.20;;;;;;;8.70;78.03;96635.34;5062427;28;20875;-70
2022/02/04 10:46:47;;;;;;;2.20;2.00;;;;;;;9.06;77.51;96637.16;5052819;28;20401;-69
2022/02/04 10:58:04;;;;;;;1.60;1.50;;;;;;;8.84;76.34;96619.53;5009962;28;20771;-69
2022/02/04 11:47:52;;;;;;;1.70;1.60;;;;;;;8.15;73.48;96576.25;5043691;28;20408;-69
2022/02/04 11:55:00;;;;;;;1.23;1.23;;;;;;;8.93;71.86;96579.00;5051848;28;20424;-69
2022/02/04 11:57:30;;;;;;;1.63;1.30;;;;;;;9.07;72.11;96573.41;5070948;28;20438;-69
2022/02/04 12:00:04;;;;;;;2.00;1.45;;;;;;;8.85;71.90;96561.84;5055830;28;20400;-68
2022/02/04 12:02:35;;;;;;;1.30;1.30;;;;;;;8.63;73.10;96561.50;5051834;28;20428;-69
2022/02/04 12:07:41;;;;;;;1.10;1.10;;;;;;;8.30;73.95;96548.78;5066955;28;20404;-68
2022/02/04 12:10:12;;;;;;;1.20;1.20;;;;;;;8.31;73.77;96542.56;5070783;28;20399;-69
2022/02/04 12:12:57;;;;;;;1.25;1.23;;;;;;;8.03;74.87;96538.81;5069057;28;20752;-68
2022/02/04 12:15:28;;;;;;;1.30;1.20;;;;;;;8.09;74.43;96533.53;5070565;28;20434;-70
2022/02/04 12:17:58;;;;;;;1.15;1.15;;;;;;;8.06;75.58;96538.41;5070857;28;20740;-69
2022/02/04 12:20:46;;;;;;;1.70;1.20;;;;;;;8.35;73.89;96542.94;5041550;28;20500;-69
2022/02/04 12:23:38;;;;;;;1.33;1.33;;;;;;;8.40;72.78;96532.63;5051031;28;20409;-70
2022/02/04 12:26:09;;;;;;;1.20;1.20;;;;;;;8.43;73.38;96524.34;5065271;28;20730;-69
2022/02/04 12:28:39;;;;;;;1.30;1.30;;;;;;;8.68;72.40;96524.25;5070139;28;20880;-70
2022/02/04 12:31:14;;;;;;;1.20;1.20;;;;;;;8.54;71.08;96528.03;5057254;28;20458;-68
2022/02/04 12:34:14;;;;;;;1.10;1.10;;;;;;;8.45;72.21;96521.53;5056887;28;20396;-69
2022/02/04 12:36:47;;;;;;;1.00;1.00;;;;;;;8.65;71.32;96519.47;5050727;28;20420;-69
2022/02/04 12:39:13;;;;;;;1.20;1.10;;;;;;;8.89;69.93;96517.75;5041844;28;20507;-68
2022/02/04 12:41:42;;;;;;;1.10;1.10;;;;;;;8.57;71.13;96517.16;5058444;28;20765;-69
2022/02/04 12:44:27;;;;;;;1.00;1.00;;;;;;;8.58;69.57;96514.31;5067426;28;20890;-68
2022/02/04 12:47:08;;;;;;;1.00;1.00;;;;;;;8.41;69.22;96508.13;5059740;28;20747;-68
2022/02/04 12:49:44;;;;;;;1.33;1.27;;;;;;;8.32;70.21;96496.38;5070884;28;20396;-68
2022/02/04 12:52:30;;;;;;;1.15;1.15;;;;;;;8.38;69.34;96495.50;5063382;28;20901;-68
2022/02/04 12:55:10;;;;;;;1.30;1.20;;;;;;;8.46;69.29;96491.78;5074503;28;20404;-69
2022/02/04 12:57:57;;;;;;;1.00;1.00;;;;;;;8.40;68.56;96485.63;5073400;28;20478;-70
2022/02/04 13:10:40;;;;;;;1.30;1.20;;;;;;;8.45;68.28;96479.75;5067284;28;20391;-69
2022/02/04 13:13:10;;;;;;;1.17;1.10;;;;;;;8.68;67.36;96467.59;5051105;28;20396;-70
2022/02/04 13:15:38;;;;;;;1.00;1.00;;;;;;;8.47;67.20;96468.03;5073381;28;20383;-69
2022/02/04 13:18:12;;;;;;;1.07;1.07;;;;;;;8.46;67.30;96466.47;5053888;28;20415;-70
2022/02/04 13:20:49;;;;;;;1.00;1.00;;;;;;;8.65;67.07;96473.25;5072892;28;20392;-69
2022/02/04 13:23:23;;;;;;;1.27;1.17;;;;;;;8.67;66.61;96473.81;5073673;28;20753;-69
2022/02/04 13:25:51;;;;;;;1.02;1.02;;;;;;;8.95;65.22;96473.22;5073704;28;20392;-70
2022/02/04 13:28:29;;;;;;;1.20;1.20;;;;;;;8.75;65.72;96470.09;5068397;28;20455;-71
2022/02/04 13:31:01;;;;;;;1.30;1.20;;;;;;;8.75;65.35;96470.09;5036919;28;20478;-69
2022/02/04 13:33:39;;;;;;;1.05;1.00;;;;;;;8.43;65.82;96471.31;5055128;28;20397;-69
2022/02/04 13:36:32;;;;;;;0.90;0.90;;;;;;;8.44;65.83;96459.88;5054188;28;20389;-69
2022/02/04 13:39:31;;;;;;;1.55;1.20;;;;;;;8.06;67.13;96458.28;5055300;28;20428;-69
2022/02/04 13:52:07;;;;;;;1.15;1.05;;;;;;;8.38;67.76;96450.31;5062513;28;20950;-69
2022/02/04 13:54:41;;;;;;;1.30;1.20;;;;;;;8.32;68.43;96454.59;5067759;28;20387;-70
2022/02/04 13:57:24;;;;;;;1.27;1.20;;;;;;;8.38;68.36;96458.13;5073429;28;20399;-68
2022/02/04 14:00:11;;;;;;;1.38;1.27;;;;;;;7.99;69.64;96460.16;5048135;28;20405;-69
2022/02/04 14:02:50;;;;;;;1.60;1.50;;;;;;;8.10;68.76;96449.00;5067328;28;20557;-68
2022/02/04 14:05:40;;;;;;;1.30;1.20;;;;;;;7.79;69.91;96455.19;5073157;28;20819;-69
2022/02/04 14:08:09;;;;;;;1.33;1.33;;;;;;;7.81;69.84;96460.16;5070185;28;20403;-68
2022/02/04 14:10:46;;;;;;;1.10;1.10;;;;;;;7.82;69.96;96464.38;5072910;28;20388;-68
2022/02/04 14:13:13;;;;;;;1.20;1.10;;;;;;;7.90;69.57;96461.50;5072034;28;20907;-68
2022/02/04 14:15:40;;;;;;;1.10;1.10;;;;;;;7.70;71.13;96460.88;5070828;28;20392;-69
2022/02/04 14:18:09;;;;;;;1.25;1.23;;;;;;;7.61;70.97;96447.34;5053242;28;20897;-69
2022/02/04 14:20:37;;;;;;;1.20;1.20;;;;;;;7.87;69.76;96438.44;5061062;28;20482;-68
2022/02/04 14:23:04;;;;;;;1.40;1.30;;;;;;;7.90;69.29;96440.63;5073081;28;20412;-68
2022/02/04 14:25:29;;;;;;;1.10;1.10;;;;;;;7.95;69.61;96438.16;5069909;28;20384;-67
2022/02/04 14:27:59;;;;;;;1.47;1.20;;;;;;;8.13;68.81;96438.13;5072919;28;20532;-69
2022/02/04 14:30:30;;;;;;;0.90;0.90;;;;;;;8.10;68.26;96440.38;5060788;28;20389;-68
2022/02/04 14:34:13;;;;;;;1.10;1.00;;;;;;;8.07;69.05;96431.19;5053289;28;20393;-68
2022/02/04 14:36:03;;;;;;;1.00;1.00;;;;;;;7.77;69.61;96427.72;5064970;28;20404;-69
2022/02/04 14:49:59;;;;;;;1.00;1.00;;;;;;;7.49;69.85;96433.41;5068906;28;20481;-69
2022/02/04 14:52:26;;;;;;;0.80;0.80;;;;;;;7.48;70.49;96430.00;5064760;28;20399;-72
2022/02/04 15:03:03;;;;;;;0.98;0.98;;;;;;;7.78;69.80;96431.91;5064805;28;20416;-65
2022/02/04 15:05:38;;;;;;;0.80;0.80;;;;;;;7.59;70.59;96418.06;5057711;28;20982;-64
2022/02/04 15:08:09;;;;;;;1.00;1.00;;;;;;;7.72;70.51;96424.94;5070738;28;20403;-63
2022/02/04 15:10:37;;;;;;;1.00;1.00;;;;;;;7.39;71.17;96425.28;5054039;28;20398;-64
2022/02/04 15:13:02;;;;;;;0.90;0.90;;;;;;;7.29;71.63;96417.16;5071788;28;20388;-63
2022/02/04 15:15:28;;;;;;;0.90;0.90;;;;;;;7.34;71.49;96410.28;5052870;28;20390;-63
2022/02/04 15:17:54;;;;;;;1.00;1.00;;;;;;;7.44;71.45;96415.00;5059517;28;20467;-63
2022/02/04 15:20:20;;;;;;;1.10;1.00;;;;;;;7.58;71.29;96413.06;5064925;28;20769;-62
2022/02/04 15:22:45;;;;;;;1.00;1.00;;;;;;;7.47;71.65;96404.13;5070245;28;20496;-61
2022/02/04 15:25:18;;;;;;;1.10;1.10;;;;;;;7.47;72.08;96393.69;5072204;28;20451;-64
2022/02/04 15:27:52;;;;;;;0.80;0.80;;;;;;;7.67;71.28;96394.31;5065714;28;20429;-64
2022/02/04 15:30:24;;;;;;;1.10;1.00;;;;;;;7.71;70.64;96390.25;5068376;28;20393;-63
2022/02/04 15:32:50;;;;;;;0.80;0.80;;;;;;;7.70;71.26;96393.06;5053087;28;20399;-64
2022/02/04 15:35:15;;;;;;;1.00;0.90;;;;;;;7.55;71.18;96384.81;5052575;28;20754;-63
2022/02/04 15:37:40;;;;;;;0.77;0.77;;;;;;;7.38;72.12;96384.59;5057078;28;20530;-65
2022/02/04 15:40:06;;;;;;;1.57;1.20;;;;;;;7.44;75.34;96387.13;5066654;28;20431;-66
2022/02/04 15:42:35;;;;;;;1.00;1.00;;;;;;;7.27;74.51;96388.69;5070787;28;20408;-67
2022/02/04 15:45:39;;;;;;;0.90;0.90;;;;;;;6.91;74.98;96383.44;5070469;28;20395;-66
2022/02/04 15:48:17;;;;;;;0.90;0.90;;;;;;;7.17;74.11;96375.38;5048941;28;20393;-65
2022/02/04 15:58:34;;;;;;;0.90;0.90;;;;;;;7.49;72.18;96384.66;5067769;28;20867;-65
2022/02/04 16:06:04;;;;;;;0.80;0.80;;;;;;;7.33;73.61;96371.41;5070775;28;20404;-65
2022/02/04 16:08:30;;;;;;;0.90;0.90;;;;;;;7.30;73.23;96380.44;5071497;28;20427;-65
2022/02/04 16:11:00;;;;;;;0.93;0.93;;;;;;;7.30;73.72;96374.44;5076931;28;20437;-65
2022/02/04 16:13:36;;;;;;;1.05;0.90;;;;;;;7.27;73.58;96380.09;5058874;28;20403;-65
2022/02/04 16:16:20;;;;;;;0.82;0.82;;;;;;;7.27;73.44;96372.25;5073328;28;20397;-64
2022/02/04 16:21:43;;;;;;;0.75;0.75;;;;;;;7.28;73.14;96368.66;5057090;28;20421;-64
2022/02/04 16:29:13;;;;;;;0.90;0.90;;;;;;;7.18;73.55;96352.72;5060157;28;20423;-64
2022/02/04 16:31:39;;;;;;;1.00;1.00;;;;;;;7.02;74.35;96357.44;5075805;28;20497;-64
2022/02/04 16:34:09;;;;;;;0.87;0.80;;;;;;;7.17;74.09;96349.31;5076912;28;20478;-71
2022/02/04 16:36:41;;;;;;;1.20;1.10;;;;;;;7.03;74.47;96346.00;5061003;28;20591;-64
2022/02/04 16:39:08;;;;;;;1.17;1.13;;;;;;;7.04;74.34;96352.84;5058295;28;20408;-64
2022/02/04 16:41:48;;;;;;;0.82;0.82;;;;;;;7.01;74.25;96352.47;5074018;28;20411;-64
2022/02/04 16:44:14;;;;;;;1.23;1.20;;;;;;;7.10;73.52;96348.56;5057911;28;20424;-64
2022/02/04 16:46:40;;;;;;;1.10;1.00;;;;;;;6.89;74.33;96346.38;5058004;28;20389;-63
2022/02/04 16:49:05;;;;;;;1.00;1.00;;;;;;;6.87;74.08;96337.94;5058159;28;20484;-64
2022/02/04 16:51:31;;;;;;;0.93;0.93;;;;;;;7.02;74.00;96336.59;5073812;28;20501;-66
2022/02/04 16:53:56;;;;;;;1.00;0.90;;;;;;;7.04;73.28;96342.41;5058242;28;20746;-64
2022/02/04 16:56:21;;;;;;;1.00;1.00;;;;;;;6.89;73.55;96338.56;5058014;28;20751;-63
2022/02/04 16:58:47;;;;;;;1.50;1.00;;;;;;;6.76;74.00;96347.25;5058484;28;20454;-63
2022/02/04 17:01:16;;;;;;;1.00;1.00;;;;;;;6.63;74.18;96353.38;5073868;28;20421;-63
2022/02/04 17:03:42;;;;;;;0.88;0.82;;;;;;;6.78;73.70;96347.84;5057891;28;20396;-64
2022/02/04 17:06:10;;;;;;;0.90;0.90;;;;;;;6.70;73.38;96361.13;5050683;28;20425;-69
2022/02/04 17:08:45;;;;;;;1.10;0.90;;;;;;;6.94;72.77;96356.94;5051075;28;20438;-63
2022/02/04 17:11:13;;;;;;;1.00;1.00;;;;;;;6.89;73.23;96356.78;5076633;28;20379;-64
2022/02/04 17:13:39;;;;;;;1.10;1.10;;;;;;;6.84;73.06;96349.63;5077269;28;20417;-63
2022/02/04 17:16:05;;;;;;;1.30;1.20;;;;;;;6.88;72.98;96358.59;5068648;28;20921;-64
2022/02/04 17:18:31;;;;;;;1.97;1.30;;;;;;;6.94;72.58;96359.53;5057104;28;20401;-65
2022/02/04 17:20:57;;;;;;;1.02;1.02;;;;;;;6.92;72.57;96367.56;5071267;28;20767;-66
2022/02/04 17:23:29;;;;;;;1.00;1.00;;;;;;;6.78;72.46;96362.69;5054120;28;20393;-64
2022/02/04 17:25:57;;;;;;;0.90;0.90;;;;;;;6.75;72.31;96366.50;5061477;28;20397;-64
2022/02/04 17:28:26;;;;;;;1.02;1.02;;;;;;;6.67;72.75;96375.38;5072224;28;20394;-64
2022/02/04 17:30:52;;;;;;;1.02;1.00;;;;;;;6.81;72.19;96364.84;5073969;28;20464;-63
2022/02/04 17:33:17;;;;;;;1.00;0.90;;;;;;;6.93;71.25;96369.16;5073488;28;20794;-64
2022/02/04 17:35:43;;;;;;;1.10;1.10;;;;;;;6.68;71.85;96377.00;5073791;28;20384;-63
2022/02/04 17:38:08;;;;;;;0.80;0.80;;;;;;;6.78;71.67;96392.13;5060516;28;20397;-63
2022/02/04 17:40:34;;;;;;;1.50;0.80;;;;;;;6.87;71.58;96383.03;5064906;28;20450;-64